sensor_id;sensor_type;location;lat;lon;timestamp;P1;durP1;ratioP1;P2;durP2;ratioP2
11539;SDS011;5826;54.756;9.192;2022-10-16T00:00:35;5.88;;;2.35;;
11539;SDS011;5826;54.756;9.192;2022-10-16T00:03:01;5.70;;;2.40;;
11539;SDS011;5826;54.756;9.192;2022-10-16T00:05:28;5.85;;;2.60;;
11539;SDS011;5826;54.756;9.192;2022-10-16T00:07:53;4.82;;;2.53;;
11539;SDS011;5826;54.756;9.192;2022-10-16T00:10:19;5.90;;;2.88;;
11539;SDS011;5826;54.756;9.192;2022-10-16T00:12:45;7.47;;;2.88;;
11539;SDS011;5826;54.756;9.192;2022-10-16T00:15:10;4.97;;;2.20;;
11539;SDS011;5826;54.756;9.192;2022-10-16T00:17:36;7.18;;;2.67;;
11539;SDS011;5826;54.756;9.192;2022-10-16T00:20:02;3.50;;;2.13;;
11539;SDS011;5826;54.756;9.192;2022-10-16T00:22:27;5.68;;;2.50;;
11539;SDS011;5826;54.756;9.192;2022-10-16T00:24:53;7.00;;;2.03;;
11539;SDS011;5826;54.756;9.192;2022-10-16T00:27:18;6.47;;;2.70;;
11539;SDS011;5826;54.756;9.192;2022-10-16T00:29:44;5.75;;;2.10;;
11539;SDS011;5826;54.756;9.192;2022-10-16T00:32:09;4.15;;;2.50;;
11539;SDS011;5826;54.756;9.192;2022-10-16T00:34:35;8.02;;;2.63;;
11539;SDS011;5826;54.756;9.192;2022-10-16T00:37:00;4.55;;;2.38;;
11539;SDS011;5826;54.756;9.192;2022-10-16T00:39:27;4.38;;;1.63;;
11539;SDS011;5826;54.756;9.192;2022-10-16T00:41:53;6.22;;;2.00;;
11539;SDS011;5826;54.756;9.192;2022-10-16T00:50:02;4.15;;;1.90;;
11539;SDS011;5826;54.756;9.192;2022-10-16T00:52:31;3.92;;;1.90;;
11539;SDS011;5826;54.756;9.192;2022-10-16T00:54:56;4.68;;;1.80;;
11539;SDS011;5826;54.756;9.192;2022-10-16T00:57:23;3.28;;;1.70;;
11539;SDS011;5826;54.756;9.192;2022-10-16T00:59:49;4.47;;;1.60;;
11539;SDS011;5826;54.756;9.192;2022-10-16T01:02:16;3.35;;;1.20;;
11539;SDS011;5826;54.756;9.192;2022-10-16T01:04:46;3.50;;;1.55;;
11539;SDS011;5826;54.756;9.192;2022-10-16T01:07:16;5.68;;;1.85;;
11539;SDS011;5826;54.756;9.192;2022-10-16T01:12:51;5.30;;;2.08;;
11539;SDS011;5826;54.756;9.192;2022-10-16T01:18:34;6.10;;;1.83;;
11539;SDS011;5826;54.756;9.192;2022-10-16T01:21:05;4.57;;;1.40;;
11539;SDS011;5826;54.756;9.192;2022-10-16T01:23:36;4.25;;;1.70;;
11539;SDS011;5826;54.756;9.192;2022-10-16T01:29:34;5.47;;;1.73;;
11539;SDS011;5826;54.756;9.192;2022-10-16T01:32:15;3.33;;;1.40;;
11539;SDS011;5826;54.756;9.192;2022-10-16T01:34:54;4.80;;;1.50;;
11539;SDS011;5826;54.756;9.192;2022-10-16T01:37:32;3.25;;;1.38;;
11539;SDS011;5826;54.756;9.192;2022-10-16T01:40:05;9.30;;;2.30;;
11539;SDS011;5826;54.756;9.192;2022-10-16T01:42:35;6.43;;;1.70;;
11539;SDS011;5826;54.756;9.192;2022-10-16T01:45:08;5.50;;;1.90;;
11539;SDS011;5826;54.756;9.192;2022-10-16T01:47:38;7.70;;;2.28;;
11539;SDS011;5826;54.756;9.192;2022-10-16T01:50:04;3.88;;;1.60;;
11539;SDS011;5826;54.756;9.192;2022-10-16T01:52:33;4.47;;;1.80;;
11539;SDS011;5826;54.756;9.192;2022-10-16T01:55:03;4.63;;;1.73;;
11539;SDS011;5826;54.756;9.192;2022-10-16T01:57:31;6.03;;;1.80;;
11539;SDS011;5826;54.756;9.192;2022-10-16T02:00:00;3.83;;;1.77;;
11539;SDS011;5826;54.756;9.192;2022-10-16T02:02:30;2.88;;;1.63;;
11539;SDS011;5826;54.756;9.192;2022-10-16T02:05:20;4.30;;;1.77;;
11539;SDS011;5826;54.756;9.192;2022-10-16T02:07:47;5.15;;;1.70;;
11539;SDS011;5826;54.756;9.192;2022-10-16T02:10:13;6.18;;;2.28;;
11539;SDS011;5826;54.756;9.192;2022-10-16T02:12:40;5.63;;;2.13;;
11539;SDS011;5826;54.756;9.192;2022-10-16T02:15:09;4.80;;;1.67;;
11539;SDS011;5826;54.756;9.192;2022-10-16T02:17:35;5.07;;;2.00;;
11539;SDS011;5826;54.756;9.192;2022-10-16T02:20:00;7.07;;;1.90;;
11539;SDS011;5826;54.756;9.192;2022-10-16T02:22:27;5.25;;;2.03;;
11539;SDS011;5826;54.756;9.192;2022-10-16T02:27:57;7.07;;;2.00;;
11539;SDS011;5826;54.756;9.192;2022-10-16T02:30:35;4.85;;;1.70;;
11539;SDS011;5826;54.756;9.192;2022-10-16T02:33:25;5.10;;;1.80;;
11539;SDS011;5826;54.756;9.192;2022-10-16T02:35:52;6.65;;;1.90;;
11539;SDS011;5826;54.756;9.192;2022-10-16T02:38:19;4.07;;;1.77;;
11539;SDS011;5826;54.756;9.192;2022-10-16T02:40:46;3.97;;;1.80;;
11539;SDS011;5826;54.756;9.192;2022-10-16T02:43:11;4.30;;;1.70;;
11539;SDS011;5826;54.756;9.192;2022-10-16T02:45:37;6.53;;;2.10;;
11539;SDS011;5826;54.756;9.192;2022-10-16T02:48:03;4.43;;;1.77;;
11539;SDS011;5826;54.756;9.192;2022-10-16T02:50:29;5.20;;;1.60;;
11539;SDS011;5826;54.756;9.192;2022-10-16T02:52:55;3.20;;;1.40;;
11539;SDS011;5826;54.756;9.192;2022-10-16T02:55:20;6.90;;;1.95;;
11539;SDS011;5826;54.756;9.192;2022-10-16T02:57:45;5.78;;;1.58;;
11539;SDS011;5826;54.756;9.192;2022-10-16T03:00:12;5.88;;;1.90;;
11539;SDS011;5826;54.756;9.192;2022-10-16T03:02:40;5.22;;;1.80;;
11539;SDS011;5826;54.756;9.192;2022-10-16T03:05:06;5.28;;;1.75;;
11539;SDS011;5826;54.756;9.192;2022-10-16T03:07:32;6.50;;;2.10;;
11539;SDS011;5826;54.756;9.192;2022-10-16T03:09:57;6.55;;;1.73;;
11539;SDS011;5826;54.756;9.192;2022-10-16T03:12:25;4.93;;;1.50;;
11539;SDS011;5826;54.756;9.192;2022-10-16T03:14:55;6.03;;;2.08;;
11539;SDS011;5826;54.756;9.192;2022-10-16T03:17:21;5.45;;;1.67;;
11539;SDS011;5826;54.756;9.192;2022-10-16T03:19:47;3.70;;;2.05;;
11539;SDS011;5826;54.756;9.192;2022-10-16T03:22:12;5.32;;;1.77;;
11539;SDS011;5826;54.756;9.192;2022-10-16T03:24:38;5.32;;;1.83;;
11539;SDS011;5826;54.756;9.192;2022-10-16T03:27:03;5.07;;;1.60;;
11539;SDS011;5826;54.756;9.192;2022-10-16T03:29:29;6.22;;;2.10;;
11539;SDS011;5826;54.756;9.192;2022-10-16T03:31:55;4.13;;;1.73;;
11539;SDS011;5826;54.756;9.192;2022-10-16T03:34:21;9.65;;;2.17;;
11539;SDS011;5826;54.756;9.192;2022-10-16T03:36:47;5.53;;;1.95;;
11539;SDS011;5826;54.756;9.192;2022-10-16T03:39:12;3.88;;;1.55;;
11539;SDS011;5826;54.756;9.192;2022-10-16T03:41:38;7.50;;;1.88;;
11539;SDS011;5826;54.756;9.192;2022-10-16T03:44:03;4.63;;;1.52;;
11539;SDS011;5826;54.756;9.192;2022-10-16T03:46:29;3.80;;;1.48;;
11539;SDS011;5826;54.756;9.192;2022-10-16T03:48:55;7.15;;;1.63;;
11539;SDS011;5826;54.756;9.192;2022-10-16T03:51:20;8.77;;;1.63;;
11539;SDS011;5826;54.756;9.192;2022-10-16T03:53:46;5.15;;;1.70;;
11539;SDS011;5826;54.756;9.192;2022-10-16T03:56:11;4.10;;;1.38;;
11539;SDS011;5826;54.756;9.192;2022-10-16T03:58:37;5.38;;;1.75;;
11539;SDS011;5826;54.756;9.192;2022-10-16T04:01:02;5.85;;;1.90;;
11539;SDS011;5826;54.756;9.192;2022-10-16T04:03:28;3.65;;;1.70;;
11539;SDS011;5826;54.756;9.192;2022-10-16T04:05:54;4.35;;;1.98;;
11539;SDS011;5826;54.756;9.192;2022-10-16T04:08:20;6.43;;;1.88;;
11539;SDS011;5826;54.756;9.192;2022-10-16T04:10:45;6.68;;;2.00;;
11539;SDS011;5826;54.756;9.192;2022-10-16T04:13:11;4.63;;;1.85;;
11539;SDS011;5826;54.756;9.192;2022-10-16T04:15:37;3.58;;;1.50;;
11539;SDS011;5826;54.756;9.192;2022-10-16T04:18:03;4.03;;;1.42;;
11539;SDS011;5826;54.756;9.192;2022-10-16T04:20:29;3.03;;;1.33;;
11539;SDS011;5826;54.756;9.192;2022-10-16T04:22:54;2.70;;;1.20;;
11539;SDS011;5826;54.756;9.192;2022-10-16T04:25:20;6.78;;;2.00;;
11539;SDS011;5826;54.756;9.192;2022-10-16T04:27:46;4.25;;;1.77;;
11539;SDS011;5826;54.756;9.192;2022-10-16T04:30:11;5.18;;;1.80;;
11539;SDS011;5826;54.756;9.192;2022-10-16T04:32:37;6.45;;;1.90;;
11539;SDS011;5826;54.756;9.192;2022-10-16T04:35:03;6.35;;;1.70;;
11539;SDS011;5826;54.756;9.192;2022-10-16T04:37:28;5.95;;;1.85;;
11539;SDS011;5826;54.756;9.192;2022-10-16T04:39:54;6.88;;;1.85;;
11539;SDS011;5826;54.756;9.192;2022-10-16T04:42:20;4.22;;;1.55;;
11539;SDS011;5826;54.756;9.192;2022-10-16T04:44:46;6.15;;;1.92;;
11539;SDS011;5826;54.756;9.192;2022-10-16T04:47:12;4.10;;;1.70;;
11539;SDS011;5826;54.756;9.192;2022-10-16T04:49:37;4.15;;;1.30;;
11539;SDS011;5826;54.756;9.192;2022-10-16T04:52:03;4.45;;;1.80;;
11539;SDS011;5826;54.756;9.192;2022-10-16T04:54:29;4.43;;;1.55;;
11539;SDS011;5826;54.756;9.192;2022-10-16T04:56:54;7.75;;;1.70;;
11539;SDS011;5826;54.756;9.192;2022-10-16T04:59:20;6.35;;;1.50;;
11539;SDS011;5826;54.756;9.192;2022-10-16T05:01:45;5.53;;;1.70;;
11539;SDS011;5826;54.756;9.192;2022-10-16T05:04:11;6.50;;;1.58;;
11539;SDS011;5826;54.756;9.192;2022-10-16T05:06:37;4.65;;;1.80;;
11539;SDS011;5826;54.756;9.192;2022-10-16T05:09:03;5.00;;;1.80;;
11539;SDS011;5826;54.756;9.192;2022-10-16T05:11:30;4.72;;;1.55;;
11539;SDS011;5826;54.756;9.192;2022-10-16T05:13:55;4.78;;;1.55;;
11539;SDS011;5826;54.756;9.192;2022-10-16T05:16:21;3.65;;;1.50;;
11539;SDS011;5826;54.756;9.192;2022-10-16T05:18:46;5.65;;;1.90;;
11539;SDS011;5826;54.756;9.192;2022-10-16T05:21:12;8.48;;;2.00;;
11539;SDS011;5826;54.756;9.192;2022-10-16T05:23:37;5.63;;;1.90;;
11539;SDS011;5826;54.756;9.192;2022-10-16T05:26:03;4.93;;;1.60;;
11539;SDS011;5826;54.756;9.192;2022-10-16T05:28:29;3.33;;;1.38;;
11539;SDS011;5826;54.756;9.192;2022-10-16T05:30:55;2.35;;;1.20;;
11539;SDS011;5826;54.756;9.192;2022-10-16T05:33:22;5.78;;;1.70;;
11539;SDS011;5826;54.756;9.192;2022-10-16T05:35:50;5.95;;;1.60;;
11539;SDS011;5826;54.756;9.192;2022-10-16T05:38:16;3.97;;;1.60;;
11539;SDS011;5826;54.756;9.192;2022-10-16T05:40:42;5.88;;;1.77;;
11539;SDS011;5826;54.756;9.192;2022-10-16T05:43:08;7.28;;;1.98;;
11539;SDS011;5826;54.756;9.192;2022-10-16T05:45:34;8.05;;;2.13;;
11539;SDS011;5826;54.756;9.192;2022-10-16T05:47:59;4.93;;;1.83;;
11539;SDS011;5826;54.756;9.192;2022-10-16T05:50:25;5.07;;;1.80;;
11539;SDS011;5826;54.756;9.192;2022-10-16T05:52:52;5.35;;;1.88;;
11539;SDS011;5826;54.756;9.192;2022-10-16T05:55:17;5.43;;;1.70;;
11539;SDS011;5826;54.756;9.192;2022-10-16T05:57:43;5.10;;;2.08;;
11539;SDS011;5826;54.756;9.192;2022-10-16T06:00:08;6.07;;;2.45;;
11539;SDS011;5826;54.756;9.192;2022-10-16T06:02:35;6.65;;;2.45;;
11539;SDS011;5826;54.756;9.192;2022-10-16T06:05:00;7.40;;;2.33;;
11539;SDS011;5826;54.756;9.192;2022-10-16T06:07:26;6.68;;;2.00;;
11539;SDS011;5826;54.756;9.192;2022-10-16T06:09:52;6.53;;;1.90;;
11539;SDS011;5826;54.756;9.192;2022-10-16T06:12:18;7.15;;;2.00;;
11539;SDS011;5826;54.756;9.192;2022-10-16T06:14:44;7.72;;;1.65;;
11539;SDS011;5826;54.756;9.192;2022-10-16T06:17:11;3.47;;;1.60;;
11539;SDS011;5826;54.756;9.192;2022-10-16T06:19:38;3.30;;;1.50;;
11539;SDS011;5826;54.756;9.192;2022-10-16T06:22:03;5.28;;;1.77;;
11539;SDS011;5826;54.756;9.192;2022-10-16T06:24:29;6.07;;;1.75;;
11539;SDS011;5826;54.756;9.192;2022-10-16T06:26:54;6.10;;;1.92;;
11539;SDS011;5826;54.756;9.192;2022-10-16T06:29:20;4.97;;;2.05;;
11539;SDS011;5826;54.756;9.192;2022-10-16T06:31:45;4.47;;;1.58;;
11539;SDS011;5826;54.756;9.192;2022-10-16T06:34:11;4.90;;;1.70;;
11539;SDS011;5826;54.756;9.192;2022-10-16T06:36:37;3.53;;;1.67;;
11539;SDS011;5826;54.756;9.192;2022-10-16T06:39:03;3.78;;;1.83;;
11539;SDS011;5826;54.756;9.192;2022-10-16T06:41:30;4.53;;;1.58;;
11539;SDS011;5826;54.756;9.192;2022-10-16T06:43:56;4.55;;;1.83;;
11539;SDS011;5826;54.756;9.192;2022-10-16T06:46:23;3.38;;;1.60;;
11539;SDS011;5826;54.756;9.192;2022-10-16T06:48:49;5.18;;;1.50;;
11539;SDS011;5826;54.756;9.192;2022-10-16T06:51:19;4.55;;;1.45;;
11539;SDS011;5826;54.756;9.192;2022-10-16T06:53:46;5.32;;;1.83;;
11539;SDS011;5826;54.756;9.192;2022-10-16T06:56:18;6.00;;;2.30;;
11539;SDS011;5826;54.756;9.192;2022-10-16T06:58:48;4.63;;;1.67;;
11539;SDS011;5826;54.756;9.192;2022-10-16T07:01:14;4.60;;;1.65;;
11539;SDS011;5826;54.756;9.192;2022-10-16T07:03:42;6.45;;;1.67;;
11539;SDS011;5826;54.756;9.192;2022-10-16T07:06:10;3.58;;;1.50;;
11539;SDS011;5826;54.756;9.192;2022-10-16T07:08:38;6.97;;;1.52;;
11539;SDS011;5826;54.756;9.192;2022-10-16T07:11:06;4.32;;;1.63;;
11539;SDS011;5826;54.756;9.192;2022-10-16T07:13:34;3.47;;;1.52;;
11539;SDS011;5826;54.756;9.192;2022-10-16T07:16:12;5.88;;;1.90;;
11539;SDS011;5826;54.756;9.192;2022-10-16T07:18:39;4.15;;;1.52;;
11539;SDS011;5826;54.756;9.192;2022-10-16T07:21:08;5.43;;;1.63;;
11539;SDS011;5826;54.756;9.192;2022-10-16T07:23:40;3.45;;;1.73;;
11539;SDS011;5826;54.756;9.192;2022-10-16T07:26:08;6.78;;;1.80;;
11539;SDS011;5826;54.756;9.192;2022-10-16T07:28:35;3.55;;;1.50;;
11539;SDS011;5826;54.756;9.192;2022-10-16T07:31:04;4.88;;;1.85;;
11539;SDS011;5826;54.756;9.192;2022-10-16T07:33:32;3.17;;;1.25;;
11539;SDS011;5826;54.756;9.192;2022-10-16T07:35:59;5.68;;;1.67;;
11539;SDS011;5826;54.756;9.192;2022-10-16T07:38:24;5.25;;;1.42;;
11539;SDS011;5826;54.756;9.192;2022-10-16T07:40:57;3.97;;;1.80;;
11539;SDS011;5826;54.756;9.192;2022-10-16T07:43:23;5.55;;;1.63;;
11539;SDS011;5826;54.756;9.192;2022-10-16T07:45:50;3.35;;;1.45;;
11539;SDS011;5826;54.756;9.192;2022-10-16T07:48:16;2.95;;;1.60;;
11539;SDS011;5826;54.756;9.192;2022-10-16T07:50:42;5.25;;;1.63;;
11539;SDS011;5826;54.756;9.192;2022-10-16T07:53:09;5.53;;;1.70;;
11539;SDS011;5826;54.756;9.192;2022-10-16T07:55:35;4.55;;;1.67;;
11539;SDS011;5826;54.756;9.192;2022-10-16T07:58:00;4.55;;;1.60;;
11539;SDS011;5826;54.756;9.192;2022-10-16T08:00:26;5.93;;;1.80;;
11539;SDS011;5826;54.756;9.192;2022-10-16T08:02:51;3.35;;;1.50;;
11539;SDS011;5826;54.756;9.192;2022-10-16T08:05:17;4.90;;;1.80;;
11539;SDS011;5826;54.756;9.192;2022-10-16T08:07:42;4.65;;;1.52;;
11539;SDS011;5826;54.756;9.192;2022-10-16T08:10:16;5.82;;;1.60;;
11539;SDS011;5826;54.756;9.192;2022-10-16T08:12:43;5.50;;;1.75;;
11539;SDS011;5826;54.756;9.192;2022-10-16T08:15:09;7.07;;;1.60;;
11539;SDS011;5826;54.756;9.192;2022-10-16T08:17:35;5.68;;;1.70;;
11539;SDS011;5826;54.756;9.192;2022-10-16T08:20:01;5.13;;;1.80;;
11539;SDS011;5826;54.756;9.192;2022-10-16T08:22:27;3.72;;;1.67;;
11539;SDS011;5826;54.756;9.192;2022-10-16T08:24:52;6.93;;;1.52;;
11539;SDS011;5826;54.756;9.192;2022-10-16T08:27:18;4.60;;;1.77;;
11539;SDS011;5826;54.756;9.192;2022-10-16T08:29:43;4.22;;;1.48;;
11539;SDS011;5826;54.756;9.192;2022-10-16T08:32:09;6.45;;;1.92;;
11539;SDS011;5826;54.756;9.192;2022-10-16T08:34:34;5.00;;;1.65;;
11539;SDS011;5826;54.756;9.192;2022-10-16T08:37:00;4.30;;;1.60;;
11539;SDS011;5826;54.756;9.192;2022-10-16T08:39:25;6.22;;;1.90;;
11539;SDS011;5826;54.756;9.192;2022-10-16T08:42:11;4.72;;;1.60;;
11539;SDS011;5826;54.756;9.192;2022-10-16T08:48:00;5.18;;;1.63;;
11539;SDS011;5826;54.756;9.192;2022-10-16T08:50:21;4.93;;;1.65;;
11539;SDS011;5826;54.756;9.192;2022-10-16T08:52:51;7.00;;;1.70;;
11539;SDS011;5826;54.756;9.192;2022-10-16T08:58:05;5.20;;;1.77;;
11539;SDS011;5826;54.756;9.192;2022-10-16T09:00:37;6.03;;;1.55;;
11539;SDS011;5826;54.756;9.192;2022-10-16T09:03:06;4.60;;;1.63;;
11539;SDS011;5826;54.756;9.192;2022-10-16T09:06:02;4.35;;;1.52;;
11539;SDS011;5826;54.756;9.192;2022-10-16T09:11:46;6.03;;;1.92;;
11539;SDS011;5826;54.756;9.192;2022-10-16T09:14:35;4.97;;;1.60;;
11539;SDS011;5826;54.756;9.192;2022-10-16T09:17:36;3.90;;;1.77;;
11539;SDS011;5826;54.756;9.192;2022-10-16T09:20:20;5.75;;;1.67;;
11539;SDS011;5826;54.756;9.192;2022-10-16T09:22:48;6.00;;;1.77;;
11539;SDS011;5826;54.756;9.192;2022-10-16T09:25:16;5.65;;;1.40;;
11539;SDS011;5826;54.756;9.192;2022-10-16T09:27:45;6.22;;;1.60;;
11539;SDS011;5826;54.756;9.192;2022-10-16T09:30:14;5.13;;;1.80;;
11539;SDS011;5826;54.756;9.192;2022-10-16T09:32:42;10.25;;;2.17;;
11539;SDS011;5826;54.756;9.192;2022-10-16T09:35:11;6.30;;;2.13;;
11539;SDS011;5826;54.756;9.192;2022-10-16T09:37:44;5.40;;;1.85;;
11539;SDS011;5826;54.756;9.192;2022-10-16T09:40:12;5.00;;;1.90;;
11539;SDS011;5826;54.756;9.192;2022-10-16T09:42:48;5.63;;;2.00;;
11539;SDS011;5826;54.756;9.192;2022-10-16T09:45:21;7.75;;;2.53;;
11539;SDS011;5826;54.756;9.192;2022-10-16T09:47:48;6.45;;;1.75;;
11539;SDS011;5826;54.756;9.192;2022-10-16T09:50:24;6.13;;;1.95;;
11539;SDS011;5826;54.756;9.192;2022-10-16T09:52:51;5.45;;;2.15;;
11539;SDS011;5826;54.756;9.192;2022-10-16T09:55:36;6.63;;;2.10;;
11539;SDS011;5826;54.756;9.192;2022-10-16T09:58:12;7.97;;;2.08;;
11539;SDS011;5826;54.756;9.192;2022-10-16T10:00:39;5.18;;;1.92;;
11539;SDS011;5826;54.756;9.192;2022-10-16T10:03:10;7.15;;;1.85;;
11539;SDS011;5826;54.756;9.192;2022-10-16T10:05:36;9.90;;;2.65;;
11539;SDS011;5826;54.756;9.192;2022-10-16T10:08:05;8.60;;;2.55;;
11539;SDS011;5826;54.756;9.192;2022-10-16T10:10:32;7.72;;;2.05;;
11539;SDS011;5826;54.756;9.192;2022-10-16T10:12:59;5.28;;;1.85;;
11539;SDS011;5826;54.756;9.192;2022-10-16T10:15:24;6.60;;;2.08;;
11539;SDS011;5826;54.756;9.192;2022-10-16T10:22:59;6.57;;;2.40;;
11539;SDS011;5826;54.756;9.192;2022-10-16T10:31:20;8.43;;;2.65;;
11539;SDS011;5826;54.756;9.192;2022-10-16T10:34:04;6.85;;;2.10;;
11539;SDS011;5826;54.756;9.192;2022-10-16T10:36:43;7.60;;;2.17;;
11539;SDS011;5826;54.756;9.192;2022-10-16T10:39:28;9.82;;;2.65;;
11539;SDS011;5826;54.756;9.192;2022-10-16T10:42:18;8.30;;;2.42;;
11539;SDS011;5826;54.756;9.192;2022-10-16T10:50:26;9.05;;;2.40;;
11539;SDS011;5826;54.756;9.192;2022-10-16T10:53:07;9.32;;;2.10;;
11539;SDS011;5826;54.756;9.192;2022-10-16T10:58:29;8.75;;;2.60;;
11539;SDS011;5826;54.756;9.192;2022-10-16T11:01:13;7.18;;;1.95;;
11539;SDS011;5826;54.756;9.192;2022-10-16T11:03:46;8.82;;;2.38;;
11539;SDS011;5826;54.756;9.192;2022-10-16T11:06:48;6.75;;;2.33;;
11539;SDS011;5826;54.756;9.192;2022-10-16T11:12:21;9.82;;;2.53;;
11539;SDS011;5826;54.756;9.192;2022-10-16T11:18:00;8.75;;;2.47;;
11539;SDS011;5826;54.756;9.192;2022-10-16T11:23:08;11.20;;;2.47;;
11539;SDS011;5826;54.756;9.192;2022-10-16T11:25:40;8.57;;;2.33;;
11539;SDS011;5826;54.756;9.192;2022-10-16T11:28:10;9.25;;;2.35;;
11539;SDS011;5826;54.756;9.192;2022-10-16T11:30:44;6.68;;;2.03;;
11539;SDS011;5826;54.756;9.192;2022-10-16T11:33:36;11.40;;;2.70;;
11539;SDS011;5826;54.756;9.192;2022-10-16T11:36:23;10.25;;;2.47;;
11539;SDS011;5826;54.756;9.192;2022-10-16T11:46:48;10.73;;;2.53;;
11539;SDS011;5826;54.756;9.192;2022-10-16T11:49:21;8.30;;;2.20;;
11539;SDS011;5826;54.756;9.192;2022-10-16T11:51:59;10.25;;;2.47;;
11539;SDS011;5826;54.756;9.192;2022-10-16T11:54:51;11.23;;;2.55;;
11539;SDS011;5826;54.756;9.192;2022-10-16T11:57:19;10.65;;;2.53;;
11539;SDS011;5826;54.756;9.192;2022-10-16T12:07:47;13.57;;;2.75;;
11539;SDS011;5826;54.756;9.192;2022-10-16T12:10:33;7.95;;;2.03;;
11539;SDS011;5826;54.756;9.192;2022-10-16T12:13:02;10.77;;;2.90;;
11539;SDS011;5826;54.756;9.192;2022-10-16T12:15:46;13.20;;;3.05;;
11539;SDS011;5826;54.756;9.192;2022-10-16T12:18:21;10.93;;;2.60;;
11539;SDS011;5826;54.756;9.192;2022-10-16T12:20:54;11.45;;;3.00;;
11539;SDS011;5826;54.756;9.192;2022-10-16T12:23:24;9.68;;;2.65;;
11539;SDS011;5826;54.756;9.192;2022-10-16T12:25:53;7.13;;;2.45;;
11539;SDS011;5826;54.756;9.192;2022-10-16T12:28:21;10.98;;;3.30;;
11539;SDS011;5826;54.756;9.192;2022-10-16T12:30:55;11.20;;;2.80;;
11539;SDS011;5826;54.756;9.192;2022-10-16T12:33:28;15.90;;;3.45;;
11539;SDS011;5826;54.756;9.192;2022-10-16T12:35:55;10.75;;;3.00;;
11539;SDS011;5826;54.756;9.192;2022-10-16T12:41:04;13.88;;;3.28;;
11539;SDS011;5826;54.756;9.192;2022-10-16T12:43:43;13.10;;;3.38;;
11539;SDS011;5826;54.756;9.192;2022-10-16T12:48:37;10.63;;;3.28;;
11539;SDS011;5826;54.756;9.192;2022-10-16T12:51:11;10.48;;;2.95;;
11539;SDS011;5826;54.756;9.192;2022-10-16T12:53:37;9.80;;;2.55;;
11539;SDS011;5826;54.756;9.192;2022-10-16T12:59:09;15.23;;;3.53;;
11539;SDS011;5826;54.756;9.192;2022-10-16T13:02:04;10.85;;;2.90;;
11539;SDS011;5826;54.756;9.192;2022-10-16T13:08:05;11.25;;;3.10;;
11539;SDS011;5826;54.756;9.192;2022-10-16T13:19:20;10.52;;;2.97;;
11539;SDS011;5826;54.756;9.192;2022-10-16T13:21:54;10.82;;;2.75;;
11539;SDS011;5826;54.756;9.192;2022-10-16T13:25:05;13.13;;;3.40;;
11539;SDS011;5826;54.756;9.192;2022-10-16T13:27:53;9.70;;;2.60;;
11539;SDS011;5826;54.756;9.192;2022-10-16T13:30:24;10.93;;;2.88;;
11539;SDS011;5826;54.756;9.192;2022-10-16T13:32:54;12.48;;;2.83;;
11539;SDS011;5826;54.756;9.192;2022-10-16T13:35:28;10.32;;;2.58;;
11539;SDS011;5826;54.756;9.192;2022-10-16T13:38:16;9.73;;;2.72;;
11539;SDS011;5826;54.756;9.192;2022-10-16T13:43:40;11.82;;;2.67;;
11539;SDS011;5826;54.756;9.192;2022-10-16T13:46:15;12.63;;;2.85;;
11539;SDS011;5826;54.756;9.192;2022-10-16T13:48:43;9.85;;;2.33;;
11539;SDS011;5826;54.756;9.192;2022-10-16T13:51:13;8.10;;;2.63;;
11539;SDS011;5826;54.756;9.192;2022-10-16T13:53:40;9.93;;;2.60;;
11539;SDS011;5826;54.756;9.192;2022-10-16T13:56:09;10.30;;;2.63;;
11539;SDS011;5826;54.756;9.192;2022-10-16T13:58:37;10.82;;;2.95;;
11539;SDS011;5826;54.756;9.192;2022-10-16T14:01:03;8.20;;;2.65;;
11539;SDS011;5826;54.756;9.192;2022-10-16T14:03:31;9.38;;;2.85;;
11539;SDS011;5826;54.756;9.192;2022-10-16T14:06:02;7.30;;;2.63;;
11539;SDS011;5826;54.756;9.192;2022-10-16T14:08:31;7.80;;;2.53;;
11539;SDS011;5826;54.756;9.192;2022-10-16T14:10:57;7.28;;;2.70;;
11539;SDS011;5826;54.756;9.192;2022-10-16T14:13:29;7.47;;;2.53;;
11539;SDS011;5826;54.756;9.192;2022-10-16T14:15:59;8.40;;;2.90;;
11539;SDS011;5826;54.756;9.192;2022-10-16T14:18:29;7.88;;;3.17;;
11539;SDS011;5826;54.756;9.192;2022-10-16T14:20:54;8.07;;;2.65;;
11539;SDS011;5826;54.756;9.192;2022-10-16T14:23:31;8.68;;;2.72;;
11539;SDS011;5826;54.756;9.192;2022-10-16T14:28:35;8.30;;;2.55;;
11539;SDS011;5826;54.756;9.192;2022-10-16T14:31:02;7.88;;;2.70;;
11539;SDS011;5826;54.756;9.192;2022-10-16T14:33:48;7.43;;;2.60;;
11539;SDS011;5826;54.756;9.192;2022-10-16T14:36:14;10.38;;;3.35;;
11539;SDS011;5826;54.756;9.192;2022-10-16T14:38:48;10.73;;;2.72;;
11539;SDS011;5826;54.756;9.192;2022-10-16T14:41:29;9.30;;;2.55;;
11539;SDS011;5826;54.756;9.192;2022-10-16T14:43:56;11.15;;;2.80;;
11539;SDS011;5826;54.756;9.192;2022-10-16T14:46:36;7.93;;;2.45;;
11539;SDS011;5826;54.756;9.192;2022-10-16T14:51:45;6.20;;;2.58;;
11539;SDS011;5826;54.756;9.192;2022-10-16T14:54:12;7.63;;;2.30;;
11539;SDS011;5826;54.756;9.192;2022-10-16T14:59:19;6.80;;;2.45;;
11539;SDS011;5826;54.756;9.192;2022-10-16T15:02:26;8.50;;;2.65;;
11539;SDS011;5826;54.756;9.192;2022-10-16T15:05:04;7.90;;;2.55;;
11539;SDS011;5826;54.756;9.192;2022-10-16T15:07:37;7.70;;;2.45;;
11539;SDS011;5826;54.756;9.192;2022-10-16T15:10:02;6.35;;;2.47;;
11539;SDS011;5826;54.756;9.192;2022-10-16T15:12:28;11.35;;;4.45;;
11539;SDS011;5826;54.756;9.192;2022-10-16T15:14:54;8.35;;;2.90;;
11539;SDS011;5826;54.756;9.192;2022-10-16T15:17:19;7.40;;;3.05;;
11539;SDS011;5826;54.756;9.192;2022-10-16T15:19:45;8.70;;;3.00;;
11539;SDS011;5826;54.756;9.192;2022-10-16T15:22:11;9.27;;;2.47;;
11539;SDS011;5826;54.756;9.192;2022-10-16T15:24:37;7.45;;;2.92;;
11539;SDS011;5826;54.756;9.192;2022-10-16T15:27:02;10.73;;;2.65;;
11539;SDS011;5826;54.756;9.192;2022-10-16T15:29:28;10.38;;;2.83;;
11539;SDS011;5826;54.756;9.192;2022-10-16T15:31:54;8.25;;;3.00;;
11539;SDS011;5826;54.756;9.192;2022-10-16T15:34:19;9.18;;;2.75;;
11539;SDS011;5826;54.756;9.192;2022-10-16T15:36:45;7.65;;;2.35;;
11539;SDS011;5826;54.756;9.192;2022-10-16T15:39:17;8.00;;;2.78;;
11539;SDS011;5826;54.756;9.192;2022-10-16T15:41:44;12.60;;;3.30;;
11539;SDS011;5826;54.756;9.192;2022-10-16T15:44:15;11.25;;;3.42;;
11539;SDS011;5826;54.756;9.192;2022-10-16T15:46:45;14.32;;;6.30;;
11539;SDS011;5826;54.756;9.192;2022-10-16T15:49:11;10.90;;;3.75;;
11539;SDS011;5826;54.756;9.192;2022-10-16T15:51:38;9.55;;;2.92;;
11539;SDS011;5826;54.756;9.192;2022-10-16T15:54:04;9.93;;;2.97;;
11539;SDS011;5826;54.756;9.192;2022-10-16T15:56:31;9.93;;;3.80;;
11539;SDS011;5826;54.756;9.192;2022-10-16T15:58:58;11.35;;;4.35;;
11539;SDS011;5826;54.756;9.192;2022-10-16T16:01:24;7.82;;;2.95;;
11539;SDS011;5826;54.756;9.192;2022-10-16T16:03:54;6.88;;;2.50;;
11539;SDS011;5826;54.756;9.192;2022-10-16T16:06:20;8.65;;;2.33;;
11539;SDS011;5826;54.756;9.192;2022-10-16T16:08:46;8.07;;;2.55;;
11539;SDS011;5826;54.756;9.192;2022-10-16T16:11:12;7.57;;;2.42;;
11539;SDS011;5826;54.756;9.192;2022-10-16T16:13:39;6.15;;;2.08;;
11539;SDS011;5826;54.756;9.192;2022-10-16T16:16:09;4.30;;;1.92;;
11539;SDS011;5826;54.756;9.192;2022-10-16T16:18:37;7.03;;;2.50;;
11539;SDS011;5826;54.756;9.192;2022-10-16T16:21:03;5.93;;;2.17;;
11539;SDS011;5826;54.756;9.192;2022-10-16T16:23:29;7.55;;;2.60;;
11539;SDS011;5826;54.756;9.192;2022-10-16T16:26:02;8.00;;;2.47;;
11539;SDS011;5826;54.756;9.192;2022-10-16T16:28:46;7.97;;;2.42;;
11539;SDS011;5826;54.756;9.192;2022-10-16T16:31:12;7.60;;;2.28;;
11539;SDS011;5826;54.756;9.192;2022-10-16T16:33:37;6.18;;;2.13;;
11539;SDS011;5826;54.756;9.192;2022-10-16T16:36:04;7.93;;;2.08;;
11539;SDS011;5826;54.756;9.192;2022-10-16T16:38:32;6.95;;;2.00;;
11539;SDS011;5826;54.756;9.192;2022-10-16T16:40:57;5.25;;;1.80;;
11539;SDS011;5826;54.756;9.192;2022-10-16T16:43:24;5.60;;;1.77;;
11539;SDS011;5826;54.756;9.192;2022-10-16T16:45:50;9.02;;;3.22;;
11539;SDS011;5826;54.756;9.192;2022-10-16T16:48:16;9.30;;;4.32;;
11539;SDS011;5826;54.756;9.192;2022-10-16T16:50:42;7.40;;;3.90;;
11539;SDS011;5826;54.756;9.192;2022-10-16T16:53:07;10.60;;;4.82;;
11539;SDS011;5826;54.756;9.192;2022-10-16T16:55:33;11.93;;;5.10;;